sensor_id;sensor_type;location;lat;lon;timestamp;pressure;altitude;pressure_sealevel;temperature;humidity
18795;BME280;29610;49.022;12.114;2022-08-06T00:02:28;98033.47;;;20.55;100.00
18795;BME280;29610;49.022;12.114;2022-08-06T00:05:02;98026.13;;;20.37;100.00
18795;BME280;29610;49.022;12.114;2022-08-06T00:07:33;98027.66;;;20.30;100.00
18795;BME280;29610;49.022;12.114;2022-08-06T00:10:15;98016.22;;;20.32;100.00
18795;BME280;29610;49.022;12.114;2022-08-06T00:12:45;98008.31;;;20.30;100.00
18795;BME280;29610;49.022;12.114;2022-08-06T00:15:16;98000.34;;;20.22;100.00
18795;BME280;29610;49.022;12.114;2022-08-06T00:18:06;97997.50;;;20.15;100.00
18795;BME280;29610;49.022;12.114;2022-08-06T00:20:39;97998.47;;;20.00;100.00
18795;BME280;29610;49.022;12.114;2022-08-06T00:23:10;97997.84;;;19.84;100.00
18795;BME280;29610;49.022;12.114;2022-08-06T00:25:44;98015.00;;;19.70;100.00
18795;BME280;29610;49.022;12.114;2022-08-06T00:28:20;98023.44;;;19.55;100.00
18795;BME280;29610;49.022;12.114;2022-08-06T00:30:59;98032.19;;;19.34;100.00
18795;BME280;29610;49.022;12.114;2022-08-06T00:33:39;98024.63;;;19.05;100.00
18795;BME280;29610;49.022;12.114;2022-08-06T00:36:24;98031.56;;;18.99;100.00
18795;BME280;29610;49.022;12.114;2022-08-06T00:38:56;98042.56;;;18.76;100.00
18795;BME280;29610;49.022;12.114;2022-08-06T00:41:28;98039.34;;;18.71;100.00
18795;BME280;29610;49.022;12.114;2022-08-06T00:44:13;98033.47;;;18.72;100.00
18795;BME280;29610;49.022;12.114;2022-08-06T00:46:57;98041.44;;;18.77;100.00
18795;BME280;29610;49.022;12.114;2022-08-06T00:49:26;98037.75;;;18.92;100.00
18795;BME280;29610;49.022;12.114;2022-08-06T00:52:16;98043.75;;;18.75;100.00
18795;BME280;29610;49.022;12.114;2022-08-06T00:54:52;98048.41;;;18.71;100.00
18795;BME280;29610;49.022;12.114;2022-08-06T00:57:21;98045.06;;;18.62;100.00
18795;BME280;29610;49.022;12.114;2022-08-06T00:59:56;98042.31;;;18.62;100.00
18795;BME280;29610;49.022;12.114;2022-08-06T01:02:28;98042.22;;;18.55;100.00
18795;BME280;29610;49.022;12.114;2022-08-06T01:04:56;98048.72;;;18.47;100.00
18795;BME280;29610;49.022;12.114;2022-08-06T01:07:34;98048.75;;;18.32;100.00
18795;BME280;29610;49.022;12.114;2022-08-06T01:10:18;98059.84;;;18.35;100.00
18795;BME280;29610;49.022;12.114;2022-08-06T01:13:07;98070.56;;;18.21;100.00
18795;BME280;29610;49.022;12.114;2022-08-06T01:16:05;98075.88;;;18.30;100.00
18795;BME280;29610;49.022;12.114;2022-08-06T01:18:45;98068.19;;;18.20;100.00
18795;BME280;29610;49.022;12.114;2022-08-06T01:21:48;98074.25;;;18.29;100.00
18795;BME280;29610;49.022;12.114;2022-08-06T01:28:00;98073.22;;;17.99;100.00
18795;BME280;29610;49.022;12.114;2022-08-06T01:30:40;98091.53;;;17.91;100.00
18795;BME280;29610;49.022;12.114;2022-08-06T01:33:17;98091.81;;;17.86;100.00
18795;BME280;29610;49.022;12.114;2022-08-06T01:36:05;98103.28;;;17.73;100.00
18795;BME280;29610;49.022;12.114;2022-08-06T01:38:41;98113.56;;;17.76;100.00
18795;BME280;29610;49.022;12.114;2022-08-06T01:41:29;98116.94;;;17.69;100.00
18795;BME280;29610;49.022;12.114;2022-08-06T01:44:34;98113.22;;;17.46;100.00
18795;BME280;29610;49.022;12.114;2022-08-06T01:47:12;98102.41;;;17.37;100.00
18795;BME280;29610;49.022;12.114;2022-08-06T01:49:49;98108.16;;;17.17;100.00
18795;BME280;29610;49.022;12.114;2022-08-06T01:52:36;98105.84;;;16.88;100.00
18795;BME280;29610;49.022;12.114;2022-08-06T01:55:11;98122.31;;;16.88;100.00
18795;BME280;29610;49.022;12.114;2022-08-06T01:57:50;98116.88;;;16.76;100.00
18795;BME280;29610;49.022;12.114;2022-08-06T02:00:45;98113.28;;;16.60;100.00
18795;BME280;29610;49.022;12.114;2022-08-06T02:03:19;98121.13;;;16.46;100.00
18795;BME280;29610;49.022;12.114;2022-08-06T02:05:53;98119.28;;;16.38;100.00
18795;BME280;29610;49.022;12.114;2022-08-06T02:08:27;98114.06;;;16.33;100.00
18795;BME280;29610;49.022;12.114;2022-08-06T02:11:09;98121.69;;;16.39;100.00
18795;BME280;29610;49.022;12.114;2022-08-06T02:14:00;98125.59;;;16.38;100.00
18795;BME280;29610;49.022;12.114;2022-08-06T02:16:36;98121.41;;;16.29;100.00
18795;BME280;29610;49.022;12.114;2022-08-06T02:19:12;98122.03;;;16.38;100.00
18795;BME280;29610;49.022;12.114;2022-08-06T02:21:45;98118.31;;;16.30;100.00
18795;BME280;29610;49.022;12.114;2022-08-06T02:24:21;98108.72;;;16.24;100.00
18795;BME280;29610;49.022;12.114;2022-08-06T02:26:54;98106.53;;;16.30;100.00
18795;BME280;29610;49.022;12.114;2022-08-06T02:29:27;98119.19;;;16.34;100.00
18795;BME280;29610;49.022;12.114;2022-08-06T02:32:17;98123.09;;;16.33;100.00
18795;BME280;29610;49.022;12.114;2022-08-06T02:34:46;98121.69;;;16.39;100.00
18795;BME280;29610;49.022;12.114;2022-08-06T02:37:21;98119.78;;;16.28;100.00
18795;BME280;29610;49.022;12.114;2022-08-06T02:40:19;98131.06;;;16.38;100.00
18795;BME280;29610;49.022;12.114;2022-08-06T02:43:01;98139.53;;;16.45;100.00
18795;BME280;29610;49.022;12.114;2022-08-06T02:45:39;98135.59;;;16.58;100.00
18795;BME280;29610;49.022;12.114;2022-08-06T02:48:32;98136.28;;;16.83;100.00
18795;BME280;29610;49.022;12.114;2022-08-06T02:51:11;98130.09;;;16.86;100.00
18795;BME280;29610;49.022;12.114;2022-08-06T02:54:07;98123.28;;;16.80;100.00
18795;BME280;29610;49.022;12.114;2022-08-06T02:56:44;98126.41;;;16.66;100.00
18795;BME280;29610;49.022;12.114;2022-08-06T02:59:20;98131.84;;;16.78;100.00
18795;BME280;29610;49.022;12.114;2022-08-06T03:01:55;98140.09;;;16.78;100.00
18795;BME280;29610;49.022;12.114;2022-08-06T03:04:29;98152.44;;;16.72;100.00
18795;BME280;29610;49.022;12.114;2022-08-06T03:07:06;98133.75;;;16.62;100.00
18795;BME280;29610;49.022;12.114;2022-08-06T03:09:56;98140.09;;;16.51;100.00
18795;BME280;29610;49.022;12.114;2022-08-06T03:12:27;98147.75;;;16.45;100.00
18795;BME280;29610;49.022;12.114;2022-08-06T03:15:01;98156.91;;;16.49;100.00
18795;BME280;29610;49.022;12.114;2022-08-06T03:17:42;98173.47;;;16.41;100.00
18795;BME280;29610;49.022;12.114;2022-08-06T03:20:20;98154.16;;;16.37;100.00
18795;BME280;29610;49.022;12.114;2022-08-06T03:22:56;98140.47;;;16.25;100.00
18795;BME280;29610;49.022;12.114;2022-08-06T03:25:29;98135.59;;;16.19;100.00
18795;BME280;29610;49.022;12.114;2022-08-06T03:28:11;98146.78;;;16.26;100.00
18795;BME280;29610;49.022;12.114;2022-08-06T03:30:50;98149.28;;;16.31;100.00
18795;BME280;29610;49.022;12.114;2022-08-06T03:33:23;98159.41;;;16.42;100.00
18795;BME280;29610;49.022;12.114;2022-08-06T03:36:10;98167.06;;;16.49;100.00
18795;BME280;29610;49.022;12.114;2022-08-06T03:38:50;98171.59;;;16.57;100.00
18795;BME280;29610;49.022;12.114;2022-08-06T03:41:23;98168.06;;;16.56;100.00
18795;BME280;29610;49.022;12.114;2022-08-06T03:43:55;98170.19;;;16.35;100.00
18795;BME280;29610;49.022;12.114;2022-08-06T03:46:37;98159.56;;;16.34;100.00
18795;BME280;29610;49.022;12.114;2022-08-06T03:49:21;98169.00;;;16.36;100.00
18795;BME280;29610;49.022;12.114;2022-08-06T03:52:13;98170.72;;;16.41;100.00
18795;BME280;29610;49.022;12.114;2022-08-06T03:54:53;98183.31;;;16.42;100.00
18795;BME280;29610;49.022;12.114;2022-08-06T03:57:27;98169.69;;;16.45;100.00
18795;BME280;29610;49.022;12.114;2022-08-06T04:00:20;98180.91;;;16.40;100.00
18795;BME280;29610;49.022;12.114;2022-08-06T04:02:57;98176.00;;;16.34;100.00
18795;BME280;29610;49.022;12.114;2022-08-06T04:05:31;98181.72;;;16.29;100.00
18795;BME280;29610;49.022;12.114;2022-08-06T04:08:10;98189.38;;;16.23;100.00
18795;BME280;29610;49.022;12.114;2022-08-06T04:10:42;98197.16;;;16.33;100.00
18795;BME280;29610;49.022;12.114;2022-08-06T04:13:25;98213.03;;;16.28;100.00
18795;BME280;29610;49.022;12.114;2022-08-06T04:16:15;98204.38;;;16.26;100.00
18795;BME280;29610;49.022;12.114;2022-08-06T04:19:02;98199.91;;;16.21;100.00
18795;BME280;29610;49.022;12.114;2022-08-06T04:21:31;98200.47;;;16.27;100.00
18795;BME280;29610;49.022;12.114;2022-08-06T04:24:21;98195.56;;;16.20;100.00
18795;BME280;29610;49.022;12.114;2022-08-06T04:27:03;98207.53;;;16.28;100.00
18795;BME280;29610;49.022;12.114;2022-08-06T04:29:38;98215.34;;;16.26;100.00
18795;BME280;29610;49.022;12.114;2022-08-06T04:32:26;98228.47;;;16.20;100.00
18795;BME280;29610;49.022;12.114;2022-08-06T04:35:00;98227.47;;;16.13;100.00
18795;BME280;29610;49.022;12.114;2022-08-06T04:37:50;98231.09;;;16.17;100.00
18795;BME280;29610;49.022;12.114;2022-08-06T04:40:24;98239.09;;;16.22;100.00
18795;BME280;29610;49.022;12.114;2022-08-06T04:43:04;98238.66;;;16.07;100.00
18795;BME280;29610;49.022;12.114;2022-08-06T04:45:36;98247.56;;;15.92;100.00
18795;BME280;29610;49.022;12.114;2022-08-06T04:48:26;98250.19;;;15.77;100.00
18795;BME280;29610;49.022;12.114;2022-08-06T04:51:07;98248.94;;;15.74;100.00
18795;BME280;29610;49.022;12.114;2022-08-06T04:53:43;98254.75;;;15.73;100.00
18795;BME280;29610;49.022;12.114;2022-08-06T04:56:25;98261.94;;;15.77;100.00
18795;BME280;29610;49.022;12.114;2022-08-06T04:59:04;98263.56;;;15.90;100.00
18795;BME280;29610;49.022;12.114;2022-08-06T05:01:35;98265.63;;;15.93;100.00
18795;BME280;29610;49.022;12.114;2022-08-06T05:04:24;98264.03;;;16.04;100.00
18795;BME280;29610;49.022;12.114;2022-08-06T05:07:01;98270.97;;;15.90;100.00
18795;BME280;29610;49.022;12.114;2022-08-06T05:09:34;98269.25;;;15.97;100.00
18795;BME280;29610;49.022;12.114;2022-08-06T05:12:21;98264.81;;;16.05;100.00
18795;BME280;29610;49.022;12.114;2022-08-06T05:14:57;98273.59;;;16.10;100.00
18795;BME280;29610;49.022;12.114;2022-08-06T05:17:34;98272.22;;;16.17;100.00
18795;BME280;29610;49.022;12.114;2022-08-06T05:20:14;98277.16;;;16.23;100.00
18795;BME280;29610;49.022;12.114;2022-08-06T05:23:03;98275.53;;;16.34;100.00
18795;BME280;29610;49.022;12.114;2022-08-06T05:25:46;98280.25;;;16.46;100.00
18795;BME280;29610;49.022;12.114;2022-08-06T05:28:24;98283.56;;;16.51;100.00
18795;BME280;29610;49.022;12.114;2022-08-06T05:30:55;98289.75;;;16.48;100.00
18795;BME280;29610;49.022;12.114;2022-08-06T05:33:26;98288.72;;;16.53;100.00
18795;BME280;29610;49.022;12.114;2022-08-06T05:35:57;98291.75;;;16.63;100.00
18795;BME280;29610;49.022;12.114;2022-08-06T05:38:35;98297.91;;;16.72;100.00
18795;BME280;29610;49.022;12.114;2022-08-06T05:41:09;98294.16;;;16.65;100.00
18795;BME280;29610;49.022;12.114;2022-08-06T05:43:41;98294.28;;;16.68;100.00
18795;BME280;29610;49.022;12.114;2022-08-06T05:46:28;98308.09;;;16.72;100.00
18795;BME280;29610;49.022;12.114;2022-08-06T05:49:05;98299.63;;;16.77;100.00
18795;BME280;29610;49.022;12.114;2022-08-06T05:52:02;98308.34;;;16.67;100.00
18795;BME280;29610;49.022;12.114;2022-08-06T05:54:39;98311.44;;;16.65;100.00
18795;BME280;29610;49.022;12.114;2022-08-06T05:57:13;98314.25;;;16.81;100.00
18795;BME280;29610;49.022;12.114;2022-08-06T05:59:52;98307.53;;;16.78;100.00
18795;BME280;29610;49.022;12.114;2022-08-06T06:02:28;98310.03;;;16.83;100.00
18795;BME280;29610;49.022;12.114;2022-08-06T06:04:59;98319.63;;;16.89;100.00
18795;BME280;29610;49.022;12.114;2022-08-06T06:07:49;98315.25;;;17.00;100.00
18795;BME280;29610;49.022;12.114;2022-08-06T06:10:40;98326.75;;;17.06;100.00
18795;BME280;29610;49.022;12.114;2022-08-06T06:13:22;98323.78;;;17.11;100.00
18795;BME280;29610;49.022;12.114;2022-08-06T06:16:31;98320.59;;;17.36;100.00
18795;BME280;29610;49.022;12.114;2022-08-06T06:19:14;98335.72;;;17.30;100.00
18795;BME280;29610;49.022;12.114;2022-08-06T06:21:56;98335.03;;;17.33;100.00
18795;BME280;29610;49.022;12.114;2022-08-06T06:24:37;98344.00;;;17.18;100.00
18795;BME280;29610;49.022;12.114;2022-08-06T06:27:16;98339.53;;;17.26;100.00
18795;BME280;29610;49.022;12.114;2022-08-06T06:30:15;98341.88;;;17.39;100.00
18795;BME280;29610;49.022;12.114;2022-08-06T06:33:15;98335.81;;;17.46;100.00
18795;BME280;29610;49.022;12.114;2022-08-06T06:36:19;98337.69;;;17.58;100.00
18795;BME280;29610;49.022;12.114;2022-08-06T06:39:04;98337.06;;;17.92;100.00
18795;BME280;29610;49.022;12.114;2022-08-06T06:41:39;98333.59;;;18.10;100.00
18795;BME280;29610;49.022;12.114;2022-08-06T06:44:28;98337.94;;;18.11;100.00
18795;BME280;29610;49.022;12.114;2022-08-06T06:47:28;98332.81;;;18.25;100.00
18795;BME280;29610;49.022;12.114;2022-08-06T06:50:12;98332.97;;;18.32;100.00
18795;BME280;29610;49.022;12.114;2022-08-06T06:52:47;98342.28;;;18.59;100.00
18795;BME280;29610;49.022;12.114;2022-08-06T06:55:23;98340.94;;;18.84;100.00
18795;BME280;29610;49.022;12.114;2022-08-06T06:58:26;98342.47;;;19.01;100.00
18795;BME280;29610;49.022;12.114;2022-08-06T07:00:59;98343.84;;;19.10;100.00
18795;BME280;29610;49.022;12.114;2022-08-06T07:03:52;98349.94;;;19.00;100.00
18795;BME280;29610;49.022;12.114;2022-08-06T07:06:25;98345.22;;;19.35;100.00
18795;BME280;29610;49.022;12.114;2022-08-06T07:09:00;98350.66;;;19.32;100.00
18795;BME280;29610;49.022;12.114;2022-08-06T07:11:44;98354.22;;;19.32;100.00
18795;BME280;29610;49.022;12.114;2022-08-06T07:14:33;98352.59;;;19.31;100.00
18795;BME280;29610;49.022;12.114;2022-08-06T07:17:05;98357.75;;;19.33;100.00
18795;BME280;29610;49.022;12.114;2022-08-06T07:20:02;98362.81;;;19.31;100.00
18795;BME280;29610;49.022;12.114;2022-08-06T07:22:35;98355.47;;;19.19;100.00
18795;BME280;29610;49.022;12.114;2022-08-06T07:25:26;98346.47;;;19.03;100.00
18795;BME280;29610;49.022;12.114;2022-08-06T07:27:57;98359.91;;;19.24;100.00
18795;BME280;29610;49.022;12.114;2022-08-06T07:30:29;98363.63;;;18.97;100.00
18795;BME280;29610;49.022;12.114;2022-08-06T07:33:01;98365.50;;;18.92;100.00
18795;BME280;29610;49.022;12.114;2022-08-06T07:35:31;98366.47;;;18.84;100.00
18795;BME280;29610;49.022;12.114;2022-08-06T07:38:03;98365.13;;;18.94;100.00
18795;BME280;29610;49.022;12.114;2022-08-06T07:40:40;98376.94;;;18.60;100.00
18795;BME280;29610;49.022;12.114;2022-08-06T07:43:23;98375.44;;;18.47;100.00
18795;BME280;29610;49.022;12.114;2022-08-06T07:46:04;98385.56;;;18.43;100.00
18795;BME280;29610;49.022;12.114;2022-08-06T07:48:40;98383.06;;;18.53;100.00
18795;BME280;29610;49.022;12.114;2022-08-06T07:51:22;98379.50;;;18.37;100.00
18795;BME280;29610;49.022;12.114;2022-08-06T07:54:04;98386.25;;;18.40;100.00
18795;BME280;29610;49.022;12.114;2022-08-06T07:56:39;98385.50;;;18.27;100.00
18795;BME280;29610;49.022;12.114;2022-08-06T07:59:29;98387.19;;;18.16;100.00
18795;BME280;29610;49.022;12.114;2022-08-06T08:02:04;98388.75;;;18.45;100.00
18795;BME280;29610;49.022;12.114;2022-08-06T08:04:34;98395.56;;;18.51;100.00
18795;BME280;29610;49.022;12.114;2022-08-06T08:07:21;98396.66;;;18.62;100.00
18795;BME280;29610;49.022;12.114;2022-08-06T08:10:16;98397.44;;;18.62;100.00
18795;BME280;29610;49.022;12.114;2022-08-06T08:12:55;98407.28;;;18.32;100.00
18795;BME280;29610;49.022;12.114;2022-08-06T08:15:32;98407.00;;;18.37;100.00
18795;BME280;29610;49.022;12.114;2022-08-06T08:18:10;98413.22;;;18.19;100.00
18795;BME280;29610;49.022;12.114;2022-08-06T08:20:41;98411.84;;;18.13;100.00
18795;BME280;29610;49.022;12.114;2022-08-06T08:23:20;98422.06;;;18.12;100.00
18795;BME280;29610;49.022;12.114;2022-08-06T08:26:05;98422.94;;;18.59;100.00
18795;BME280;29610;49.022;12.114;2022-08-06T08:28:34;98416.78;;;18.97;100.00
18795;BME280;29610;49.022;12.114;2022-08-06T08:31:05;98425.44;;;18.99;100.00
18795;BME280;29610;49.022;12.114;2022-08-06T08:33:51;98419.78;;;18.76;100.00
18795;BME280;29610;49.022;12.114;2022-08-06T08:36:21;98420.50;;;18.73;100.00
18795;BME280;29610;49.022;12.114;2022-08-06T08:38:57;98432.06;;;18.79;100.00
18795;BME280;29610;49.022;12.114;2022-08-06T08:41:39;98428.06;;;18.76;100.00
18795;BME280;29610;49.022;12.114;2022-08-06T08:44:24;98438.19;;;18.41;100.00
18795;BME280;29610;49.022;12.114;2022-08-06T08:46:58;98439.84;;;18.30;100.00
18795;BME280;29610;49.022;12.114;2022-08-06T08:49:35;98445.69;;;18.29;100.00
18795;BME280;29610;49.022;12.114;2022-08-06T08:52:17;98444.56;;;18.30;100.00
18795;BME280;29610;49.022;12.114;2022-08-06T08:54:54;98451.84;;;18.38;100.00
18795;BME280;29610;49.022;12.114;2022-08-06T08:57:25;98436.97;;;18.39;100.00
18795;BME280;29610;49.022;12.114;2022-08-06T09:00:16;98443.06;;;18.48;100.00
18795;BME280;29610;49.022;12.114;2022-08-06T09:02:53;98438.13;;;18.53;100.00
18795;BME280;29610;49.022;12.114;2022-08-06T09:05:24;98441.66;;;18.69;100.00
18795;BME280;29610;49.022;12.114;2022-08-06T09:08:02;98444.16;;;18.43;100.00
18795;BME280;29610;49.022;12.114;2022-08-06T09:10:31;98452.97;;;18.37;100.00
18795;BME280;29610;49.022;12.114;2022-08-06T09:13:05;98448.88;;;18.15;100.00
18795;BME280;29610;49.022;12.114;2022-08-06T09:15:51;98451.19;;;18.13;100.00
18795;BME280;29610;49.022;12.114;2022-08-06T09:18:23;98454.63;;;18.10;100.00
18795;BME280;29610;49.022;12.114;2022-08-06T09:20:56;98445.53;;;18.37;100.00
18795;BME280;29610;49.022;12.114;2022-08-06T09:23:26;98452.31;;;18.40;100.00
18795;BME280;29610;49.022;12.114;2022-08-06T09:26:15;98450.81;;;18.42;100.00
18795;BME280;29610;49.022;12.114;2022-08-06T09:29:20;98454.38;;;18.74;100.00
18795;BME280;29610;49.022;12.114;2022-08-06T09:31:58;98447.91;;;18.66;100.00
18795;BME280;29610;49.022;12.114;2022-08-06T09:34:34;98456.94;;;18.82;100.00
18795;BME280;29610;49.022;12.114;2022-08-06T09:37:07;98443.59;;;19.00;100.00
18795;BME280;29610;49.022;12.114;2022-08-06T09:39:39;98449.69;;;19.09;100.00
18795;BME280;29610;49.022;12.114;2022-08-06T09:42:37;98440.75;;;19.66;100.00
18795;BME280;29610;49.022;12.114;2022-08-06T09:45:10;98442.72;;;19.84;100.00
18795;BME280;29610;49.022;12.114;2022-08-06T09:47:44;98449.88;;;20.27;100.00
18795;BME280;29610;49.022;12.114;2022-08-06T09:50:44;98455.69;;;20.22;100.00
18795;BME280;29610;49.022;12.114;2022-08-06T09:53:15;98453.47;;;20.50;100.00
18795;BME280;29610;49.022;12.114;2022-08-06T09:55:49;98454.31;;;20.31;100.00
18795;BME280;29610;49.022;12.114;2022-08-06T09:58:33;98463.53;;;20.01;100.00
18795;BME280;29610;49.022;12.114;2022-08-06T10:01:19;98447.63;;;20.33;100.00
18795;BME280;29610;49.022;12.114;2022-08-06T10:03:53;98445.41;;;20.87;100.00
18795;BME280;29610;49.022;12.114;2022-08-06T10:06:33;98445.94;;;21.18;100.00
18795;BME280;29610;49.022;12.114;2022-08-06T10:09:09;98447.41;;;21.98;100.00
18795;BME280;29610;49.022;12.114;2022-08-06T10:11:47;98444.09;;;21.85;100.00
18795;BME280;29610;49.022;12.114;2022-08-06T10:14:25;98446.25;;;21.13;100.00
18795;BME280;29610;49.022;12.114;2022-08-06T10:17:08;98444.69;;;20.67;100.00
18795;BME280;29610;49.022;12.114;2022-08-06T10:19:42;98447.94;;;21.47;100.00
18795;BME280;29610;49.022;12.114;2022-08-06T10:22:20;98448.31;;;22.45;100.00
18795;BME280;29610;49.022;12.114;2022-08-06T10:24:55;98434.53;;;23.47;100.00
18795;BME280;29610;49.022;12.114;2022-08-06T10:27:41;98430.22;;;23.56;100.00
18795;BME280;29610;49.022;12.114;2022-08-06T10:30:20;98444.38;;;23.37;100.00
18795;BME280;29610;49.022;12.114;2022-08-06T10:32:59;98436.72;;;23.24;100.00
18795;BME280;29610;49.022;12.114;2022-08-06T10:35:35;98431.06;;;23.67;100.00
18795;BME280;29610;49.022;12.114;2022-08-06T10:38:23;98430.16;;;24.42;100.00
18795;BME280;29610;49.022;12.114;2022-08-06T10:41:07;98435.66;;;24.21;100.00
18795;BME280;29610;49.022;12.114;2022-08-06T10:43:58;98433.59;;;23.97;100.00
18795;BME280;29610;49.022;12.114;2022-08-06T10:46:33;98433.38;;;24.69;100.00
18795;BME280;29610;49.022;12.114;2022-08-06T10:49:06;98432.91;;;24.28;100.00
18795;BME280;29610;49.022;12.114;2022-08-06T10:51:56;98438.47;;;24.35;100.00
18795;BME280;29610;49.022;12.114;2022-08-06T10:54:30;98436.91;;;24.66;100.00
18795;BME280;29610;49.022;12.114;2022-08-06T10:57:00;98433.38;;;24.72;100.00
18795;BME280;29610;49.022;12.114;2022-08-06T10:59:33;98442.88;;;24.64;100.00
18795;BME280;29610;49.022;12.114;2022-08-06T11:02:23;98442.91;;;24.71;100.00
18795;BME280;29610;49.022;12.114;2022-08-06T11:05:00;98431.75;;;24.50;100.00
18795;BME280;29610;49.022;12.114;2022-08-06T11:08:17;98441.25;;;24.31;100.00
18795;BME280;29610;49.022;12.114;2022-08-06T11:11:26;98428.94;;;24.22;100.00
18795;BME280;29610;49.022;12.114;2022-08-06T11:14:05;98445.69;;;23.03;100.00
18795;BME280;29610;49.022;12.114;2022-08-06T11:16:55;98432.41;;;23.98;100.00
18795;BME280;29610;49.022;12.114;2022-08-06T11:19:40;98426.50;;;24.10;100.00
18795;BME280;29610;49.022;12.114;2022-08-06T11:22:40;98423.31;;;24.08;100.00
18795;BME280;29610;49.022;12.114;2022-08-06T11:25:38;98428.09;;;24.11;100.00
18795;BME280;29610;49.022;12.114;2022-08-06T11:28:08;98413.91;;;24.62;100.00
18795;BME280;29610;49.022;12.114;2022-08-06T11:30:40;98412.69;;;25.12;100.00
18795;BME280;29610;49.022;12.114;2022-08-06T11:33:17;98420.59;;;25.48;100.00
18795;BME280;29610;49.022;12.114;2022-08-06T11:35:48;98410.72;;;25.19;100.00
18795;BME280;29610;49.022;12.114;2022-08-06T11:39:01;98414.50;;;25.85;100.00
18795;BME280;29610;49.022;12.114;2022-08-06T11:41:50;98416.59;;;25.63;96.31
18795;BME280;29610;49.022;12.114;2022-08-06T11:44:29;98405.44;;;25.67;93.17
18795;BME280;29610;49.022;12.114;2022-08-06T11:47:11;98408.63;;;26.45;86.78
18795;BME280;29610;49.022;12.114;2022-08-06T11:49:42;98402.59;;;25.88;86.86
18795;BME280;29610;49.022;12.114;2022-08-06T11:52:39;98406.28;;;25.53;91.79
18795;BME280;29610;49.022;12.114;2022-08-06T11:55:13;98413.88;;;25.32;93.92
18795;BME280;29610;49.022;12.114;2022-08-06T11:58:18;98424.22;;;24.54;100.00
18795;BME280;29610;49.022;12.114;2022-08-06T12:00:58;98401.59;;;24.56;100.00
18795;BME280;29610;49.022;12.114;2022-08-06T12:03:47;98404.34;;;24.41;100.00
18795;BME280;29610;49.022;12.114;2022-08-06T12:06:22;98386.88;;;25.22;98.21
18795;BME280;29610;49.022;12.114;2022-08-06T12:09:09;98402.41;;;24.98;96.35
18795;BME280;29610;49.022;12.114;2022-08-06T12:11:51;98388.09;;;24.89;100.00
18795;BME280;29610;49.022;12.114;2022-08-06T12:14:38;98407.13;;;24.45;100.00
18795;BME280;29610;49.022;12.114;2022-08-06T12:17:13;98406.31;;;24.37;100.00
18795;BME280;29610;49.022;12.114;2022-08-06T12:19:51;98402.38;;;24.60;96.81
18795;BME280;29610;49.022;12.114;2022-08-06T12:22:32;98392.84;;;24.61;97.51
18795;BME280;29610;49.022;12.114;2022-08-06T12:25:05;98397.59;;;24.35;97.03
18795;BME280;29610;49.022;12.114;2022-08-06T12:27:41;98389.63;;;25.25;91.65
18795;BME280;29610;49.022;12.114;2022-08-06T12:30:17;98389.22;;;25.44;89.69
18795;BME280;29610;49.022;12.114;2022-08-06T12:33:05;98387.41;;;26.61;83.94
18795;BME280;29610;49.022;12.114;2022-08-06T12:35:51;98385.13;;;26.46;77.58
18795;BME280;29610;49.022;12.114;2022-08-06T12:38:25;98397.38;;;25.86;84.94
18795;BME280;29610;49.022;12.114;2022-08-06T12:40:57;98394.59;;;26.01;79.47
18795;BME280;29610;49.022;12.114;2022-08-06T12:43:30;98393.63;;;25.17;82.52
18795;BME280;29610;49.022;12.114;2022-08-06T12:46:23;98391.28;;;25.02;85.24
18795;BME280;29610;49.022;12.114;2022-08-06T12:48:58;98382.91;;;24.42;86.27
18795;BME280;29610;49.022;12.114;2022-08-06T12:51:30;98383.69;;;24.35;86.34
18795;BME280;29610;49.022;12.114;2022-08-06T12:54:05;98384.88;;;24.27;87.42
18795;BME280;29610;49.022;12.114;2022-08-06T12:56:39;98383.31;;;25.07;81.85
18795;BME280;29610;49.022;12.114;2022-08-06T12:59:12;98376.88;;;26.28;74.03
18795;BME280;29610;49.022;12.114;2022-08-06T13:01:52;98372.09;;;26.36;74.88
18795;BME280;29610;49.022;12.114;2022-08-06T13:04:43;98377.78;;;26.18;68.83
18795;BME280;29610;49.022;12.114;2022-08-06T13:07:13;98371.66;;;26.37;69.59
18795;BME280;29610;49.022;12.114;2022-08-06T13:09:47;98376.38;;;25.78;66.77
18795;BME280;29610;49.022;12.114;2022-08-06T13:12:36;98380.41;;;25.63;67.04
18795;BME280;29610;49.022;12.114;2022-08-06T13:15:27;98377.00;;;26.14;69.03
18795;BME280;29610;49.022;12.114;2022-08-06T13:18:16;98354.19;;;26.81;62.47
18795;BME280;29610;49.022;12.114;2022-08-06T13:21:17;98367.09;;;27.49;58.75
18795;BME280;29610;49.022;12.114;2022-08-06T13:23:48;98365.34;;;27.29;55.01
18795;BME280;29610;49.022;12.114;2022-08-06T13:26:20;98360.97;;;26.32;58.95
18795;BME280;29610;49.022;12.114;2022-08-06T13:29:14;98371.31;;;25.42;64.91
18795;BME280;29610;49.022;12.114;2022-08-06T13:32:08;98363.34;;;25.51;67.55
18795;BME280;29610;49.022;12.114;2022-08-06T13:35:01;98351.09;;;26.72;61.06
18795;BME280;29610;49.022;12.114;2022-08-06T13:37:46;98345.06;;;27.17;59.12
18795;BME280;29610;49.022;12.114;2022-08-06T13:40:43;98339.66;;;27.00;54.90
18795;BME280;29610;49.022;12.114;2022-08-06T13:43:36;98340.53;;;27.34;56.18
18795;BME280;29610;49.022;12.114;2022-08-06T13:46:25;98338.66;;;26.83;52.46
18795;BME280;29610;49.022;12.114;2022-08-06T13:49:01;98331.09;;;27.21;53.20
18795;BME280;29610;49.022;12.114;2022-08-06T13:51:41;98332.69;;;26.81;52.97
18795;BME280;29610;49.022;12.114;2022-08-06T13:54:22;98343.81;;;25.61;58.39